Time;durP1;ratioP1;P1;durP2;ratioP2;P2;SDS_P1;SDS_P2;PMS_P1;PMS_P2;Temp;Humidity;BMP_temperature;BMP_pressure;BME280_temperature;BME280_humidity;BME280_pressure;Samples;Min_cycle;Max_cycle;Signal;HPM_P1;HPM_P2
2023/07/02 00:00:01;;;;;;;3.47;3.17;;;;;;;16.03;100.00;95485.25;7400098;19;20388;-76
2023/07/02 00:02:35;;;;;;;5.00;2.70;;;;;;;16.18;100.00;95510.78;7401375;19;20351;-76
2023/07/02 00:05:02;;;;;;;2.67;2.47;;;;;;;15.95;100.00;95476.47;7400369;19;20410;-76
2023/07/02 00:07:29;;;;;;;2.70;2.50;;;;;;;15.92;100.00;95469.25;7396243;19;20432;-75
2023/07/02 00:09:56;;;;;;;2.40;2.20;;;;;;;15.93;100.00;95475.34;7400172;19;20413;-75
2023/07/02 00:12:23;;;;;;;4.50;2.33;;;;;;;16.09;100.00;95504.28;7398261;19;20411;-75
2023/07/02 00:14:52;;;;;;;7.60;3.20;;;;;;;15.90;100.00;95473.44;7400276;19;20379;-75
2023/07/02 00:17:21;;;;;;;3.37;2.43;;;;;;;15.79;100.00;95454.78;7396167;19;20986;-76
2023/07/02 00:19:51;;;;;;;2.80;2.60;;;;;;;16.03;100.00;95501.25;7399979;19;20409;-75
2023/07/02 00:22:19;;;;;;;4.80;3.33;;;;;;;16.08;100.00;95495.53;7397330;19;20729;-76
2023/07/02 00:24:47;;;;;;;3.50;2.90;;;;;;;15.79;100.00;95446.78;7399618;19;21044;-75
2023/07/02 00:27:14;;;;;;;3.57;3.27;;;;;;;15.65;100.00;95444.13;7398011;19;20397;-76
2023/07/02 00:29:41;;;;;;;4.83;2.80;;;;;;;15.80;100.00;95466.97;7399912;19;20738;-76
2023/07/02 00:32:08;;;;;;;2.73;2.53;;;;;;;15.63;100.00;95435.75;7398475;19;20407;-76
2023/07/02 00:34:35;;;;;;;2.90;2.70;;;;;;;15.77;100.00;95461.63;7400412;19;20378;-76
2023/07/02 00:37:02;;;;;;;2.70;2.50;;;;;;;15.75;100.00;95458.56;7396269;19;20514;-75
2023/07/02 00:39:30;;;;;;;3.30;2.97;;;;;;;15.71;100.00;95477.22;7399018;19;20928;-75
2023/07/02 00:42:02;;;;;;;5.40;3.97;;;;;;;15.81;100.00;95483.72;7399089;19;20405;-76
2023/07/02 00:44:30;;;;;;;2.77;2.57;;;;;;;15.58;100.00;95446.72;7401483;19;20453;-76
2023/07/02 00:46:57;;;;;;;3.30;3.10;;;;;;;15.73;100.00;95468.84;7396603;19;20447;-76
2023/07/02 00:49:25;;;;;;;2.50;2.30;;;;;;;15.86;100.00;95470.75;7400057;19;20747;-76
2023/07/02 00:51:52;;;;;;;2.60;2.40;;;;;;;15.87;100.00;95466.19;7398285;19;20948;-76
2023/07/02 00:54:20;;;;;;;5.93;3.17;;;;;;;15.79;100.00;95475.34;7400325;19;20381;-75
2023/07/02 00:56:47;;;;;;;3.17;2.53;;;;;;;15.29;100.00;95411.31;7397061;19;20417;-76
2023/07/02 00:59:14;;;;;;;4.70;2.70;;;;;;;15.42;100.00;95435.69;7399535;19;20413;-76
2023/07/02 01:01:41;;;;;;;3.63;2.60;;;;;;;15.62;100.00;95455.50;7397640;19;20353;-75
2023/07/02 01:04:09;;;;;;;2.77;2.50;;;;;;;15.55;100.00;95440.28;7397380;19;20771;-76
2023/07/02 01:06:40;;;;;;;5.80;3.37;;;;;;;15.72;100.00;95473.41;7396887;19;20460;-76
2023/07/02 01:09:07;;;;;;;2.47;2.27;;;;;;;15.66;100.00;95461.63;7397112;19;20545;-75
2023/07/02 01:11:53;;;;;;;4.67;2.70;;;;;;;15.73;100.00;95482.19;7397736;19;20888;-75
2023/07/02 01:14:43;;;;;;;2.57;2.23;;;;;;;15.66;100.00;95483.72;7397533;19;20377;-75
2023/07/02 01:17:10;;;;;;;3.10;2.70;;;;;;;15.44;100.00;95449.38;7395872;19;20776;-75
2023/07/02 01:19:53;;;;;;;2.83;2.43;;;;;;;15.57;100.00;95461.97;7397459;19;20722;-75
2023/07/02 01:22:22;;;;;;;2.90;2.70;;;;;;;15.66;100.00;95467.72;7395447;19;20353;-75
2023/07/02 01:24:50;;;;;;;3.07;2.70;;;;;;;15.61;100.00;95472.66;7398271;19;20411;-75
2023/07/02 01:27:18;;;;;;;3.30;3.00;;;;;;;15.61;100.00;95475.31;7394599;19;20799;-75
2023/07/02 01:29:46;;;;;;;2.40;2.20;;;;;;;15.70;100.00;95494.38;7397977;19;20406;-75
2023/07/02 01:32:14;;;;;;;2.80;2.50;;;;;;;15.66;100.00;95482.94;7396656;19;20377;-75
2023/07/02 01:34:43;;;;;;;3.00;2.70;;;;;;;15.48;100.00;95458.13;7398253;19;20377;-75
2023/07/02 01:37:10;;;;;;;2.30;2.10;;;;;;;15.51;100.00;95465.41;7394807;19;20553;-75
2023/07/02 01:39:37;;;;;;;5.00;2.70;;;;;;;15.69;100.00;95486.75;7399227;19;20385;-75
2023/07/02 01:42:10;;;;;;;3.10;2.73;;;;;;;15.55;100.00;95466.91;7395554;19;20417;-75
2023/07/02 01:44:37;;;;;;;2.80;2.60;;;;;;;15.50;100.00;95459.31;7397602;19;20394;-75
2023/07/02 01:47:04;;;;;;;2.77;2.50;;;;;;;15.66;100.00;95485.63;7395020;19;20429;-75
2023/07/02 01:49:32;;;;;;;5.40;3.57;;;;;;;15.58;100.00;95492.03;7397062;19;20881;-75
2023/07/02 01:51:59;;;;;;;3.60;3.30;;;;;;;15.42;100.00;95480.97;7395955;19;20388;-75
2023/07/02 01:54:27;;;;;;;3.67;2.90;;;;;;;15.49;100.00;95499.63;7397651;19;20973;-75
2023/07/02 01:56:56;;;;;;;3.90;3.50;;;;;;;15.36;100.00;95481.34;7394824;19;20488;-76
2023/07/02 01:59:23;;;;;;;3.67;3.23;;;;;;;15.40;100.00;95485.91;7398139;19;20415;-76
2023/07/02 02:01:51;;;;;;;3.10;2.90;;;;;;;15.59;100.00;95510.34;7395399;19;20392;-76
2023/07/02 02:04:18;;;;;;;4.87;3.40;;;;;;;15.37;100.00;95492.78;7399298;19;20376;-76
2023/07/02 02:06:45;;;;;;;3.37;2.97;;;;;;;15.45;100.00;95502.28;7394817;19;20431;-75
2023/07/02 02:09:12;;;;;;;4.07;2.77;;;;;;;15.59;100.00;95514.88;7394161;19;20400;-75
2023/07/02 02:11:41;;;;;;;5.80;3.60;;;;;;;15.44;100.00;95505.34;7395710;19;20456;-75
2023/07/02 02:14:08;;;;;;;3.70;3.40;;;;;;;15.36;100.00;95518.66;7394748;19;20776;-75
2023/07/02 02:16:35;;;;;;;3.37;3.17;;;;;;;15.36;100.00;95500.00;7392507;19;20457;-75
2023/07/02 02:19:03;;;;;;;4.93;3.93;;;;;;;15.38;100.00;95513.69;7394937;19;20361;-75
2023/07/02 02:21:31;;;;;;;3.47;3.17;;;;;;;14.79;100.00;95424.50;7398017;19;20706;-75
2023/07/02 02:23:58;;;;;;;3.67;3.43;;;;;;;15.42;100.00;95520.94;7393067;19;20421;-75
2023/07/02 02:26:26;;;;;;;3.33;3.03;;;;;;;15.27;100.00;95504.91;7395955;19;20424;-75
2023/07/02 02:28:53;;;;;;;6.13;3.30;;;;;;;15.40;100.00;95523.22;7394456;19;20703;-75
2023/07/02 02:31:21;;;;;;;3.60;2.83;;;;;;;15.49;100.00;95523.59;7396140;19;20381;-75
2023/07/02 02:33:48;;;;;;;4.30;3.80;;;;;;;15.24;100.00;95491.59;7394575;19;20376;-75
2023/07/02 02:36:17;;;;;;;3.20;2.87;;;;;;;15.28;100.00;95492.34;7395072;19;20421;-75
2023/07/02 02:38:44;;;;;;;6.00;3.13;;;;;;;15.38;100.00;95507.63;7395095;19;20373;-75
2023/07/02 02:41:12;;;;;;;4.57;3.70;;;;;;;15.44;100.00;95514.09;7396076;19;20390;-75
2023/07/02 02:43:44;;;;;;;3.37;3.07;;;;;;;15.42;100.00;95510.28;7393498;19;20405;-76
2023/07/02 02:46:19;;;;;;;3.90;3.60;;;;;;;15.31;100.00;95508.34;7395415;19;20424;-75
2023/07/02 02:48:46;;;;;;;5.13;3.80;;;;;;;15.35;100.00;95497.69;7395088;19;20404;-75
2023/07/02 02:51:13;;;;;;;4.80;4.30;;;;;;;15.46;100.00;95509.13;7396902;19;20389;-75
2023/07/02 02:53:40;;;;;;;4.43;4.00;;;;;;;15.61;100.00;95537.38;7394458;19;20744;-76
2023/07/02 02:56:07;;;;;;;4.63;4.33;;;;;;;15.51;100.00;95508.78;7395223;19;20960;-75
2023/07/02 02:58:34;;;;;;;3.50;3.30;;;;;;;15.62;100.00;95527.47;7394275;19;20380;-75
2023/07/02 03:01:01;;;;;;;3.70;3.40;;;;;;;15.50;100.00;95509.94;7394332;19;20934;-75
2023/07/02 03:03:28;;;;;;;5.03;3.10;;;;;;;15.59;100.00;95522.88;7393238;19;20377;-75
2023/07/02 03:05:55;;;;;;;3.60;3.30;;;;;;;15.33;100.00;95503.41;7395473;19;20485;-75
2023/07/02 03:08:22;;;;;;;4.20;3.90;;;;;;;15.46;100.00;95516.38;7395699;19;20711;-75
2023/07/02 03:10:49;;;;;;;4.40;3.50;;;;;;;15.50;100.00;95531.25;7395563;19;20397;-76
2023/07/02 03:13:16;;;;;;;5.30;4.27;;;;;;;15.27;100.00;95488.94;7394263;19;20376;-75
2023/07/02 03:15:43;;;;;;;4.43;4.13;;;;;;;15.45;100.00;95530.81;7392480;19;20409;-76
2023/07/02 03:18:10;;;;;;;4.83;4.37;;;;;;;15.36;100.00;95531.97;7394291;19;20381;-76
2023/07/02 03:20:37;;;;;;;4.60;3.80;;;;;;;15.46;100.00;95543.00;7393837;19;20376;-75
2023/07/02 03:23:04;;;;;;;4.80;4.43;;;;;;;15.09;100.00;95490.78;7394020;19;20373;-75
2023/07/02 03:25:31;;;;;;;4.57;4.17;;;;;;;15.14;100.00;95516.28;7394024;19;20398;-75
2023/07/02 03:27:58;;;;;;;4.77;3.80;;;;;;;15.12;100.00;95515.91;7394037;19;20428;-75
2023/07/02 03:30:25;;;;;;;4.73;4.30;;;;;;;15.14;100.00;95517.03;7392977;19;20735;-75
2023/07/02 03:32:52;;;;;;;3.93;3.63;;;;;;;15.05;100.00;95497.97;7394615;19;20740;-75
2023/07/02 03:35:19;;;;;;;4.20;3.90;;;;;;;15.07;100.00;95511.69;7392944;19;20923;-75
2023/07/02 03:37:46;;;;;;;4.33;4.00;;;;;;;14.93;100.00;95493.00;7391970;19;20389;-75
2023/07/02 03:40:13;;;;;;;4.50;4.10;;;;;;;15.19;100.00;95524.66;7394264;19;20341;-75
2023/07/02 03:42:40;;;;;;;4.67;4.20;;;;;;;14.82;100.00;95473.53;7394254;19;20377;-75
2023/07/02 03:45:07;;;;;;;5.10;4.60;;;;;;;14.84;100.00;95481.94;7393281;19;20388;-75
2023/07/02 03:47:34;;;;;;;3.77;3.40;;;;;;;15.10;100.00;95532.25;7392277;19;20424;-75
2023/07/02 03:50:01;;;;;;;5.70;5.30;;;;;;;15.11;100.00;95517.81;7392191;19;20440;-75
2023/07/02 03:52:28;;;;;;;3.70;3.40;;;;;;;15.13;100.00;95525.41;7393933;19;20393;-75
2023/07/02 03:54:56;;;;;;;4.03;3.63;;;;;;;15.20;100.00;95533.41;7394230;19;20386;-76
2023/07/02 03:57:22;;;;;;;3.50;3.27;;;;;;;15.04;100.00;95533.72;7393731;19;20409;-76
2023/07/02 03:59:49;;;;;;;4.00;3.67;;;;;;;14.98;100.00;95533.34;7397908;19;20368;-75
2023/07/02 04:02:16;;;;;;;4.20;3.90;;;;;;;15.13;100.00;95536.81;7406261;19;20372;-75
2023/07/02 04:04:43;;;;;;;6.20;4.03;;;;;;;15.30;100.00;95576.06;7407140;19;20358;-75
2023/07/02 04:07:10;;;;;;;5.60;3.83;;;;;;;15.16;100.00;95551.28;7401444;19;20428;-76
2023/07/02 04:09:37;;;;;;;4.50;4.10;;;;;;;15.33;100.00;95574.56;7392106;19;20366;-76
2023/07/02 04:12:05;;;;;;;4.30;3.90;;;;;;;15.33;100.00;95577.97;7394405;19;20389;-76
2023/07/02 04:14:32;;;;;;;4.60;4.20;;;;;;;15.16;100.00;95543.28;7397695;19;20444;-76
2023/07/02 04:16:58;;;;;;;4.37;3.90;;;;;;;15.26;100.00;95571.88;7399098;19;20436;-76
2023/07/02 04:19:25;;;;;;;4.30;4.00;;;;;;;15.17;100.00;95556.22;7400045;19;20401;-76
2023/07/02 04:21:53;;;;;;;5.33;3.90;;;;;;;15.32;100.00;95581.78;7400789;19;20376;-76
2023/07/02 04:24:20;;;;;;;6.70;4.20;;;;;;;15.12;100.00;95555.84;7397004;19;20905;-76
2023/07/02 04:26:47;;;;;;;3.80;3.50;;;;;;;15.25;100.00;95583.66;7398857;19;20427;-75
2023/07/02 04:29:34;;;;;;;4.03;3.73;;;;;;;15.15;100.00;95571.81;7399844;19;20365;-76
2023/07/02 04:32:01;;;;;;;4.80;3.63;;;;;;;15.08;100.00;95571.78;7398776;19;20346;-76
2023/07/02 04:34:28;;;;;;;4.30;3.73;;;;;;;15.05;100.00;95564.53;7399869;19;20369;-76
2023/07/02 04:36:55;;;;;;;4.23;3.83;;;;;;;15.02;100.00;95562.63;7396252;19;20413;-76
2023/07/02 04:39:22;;;;;;;4.40;3.67;;;;;;;15.01;100.00;95577.09;7399786;19;20730;-76
2023/07/02 04:41:52;;;;;;;5.40;4.90;;;;;;;15.14;100.00;95578.28;7399301;19;20365;-76
2023/07/02 04:44:21;;;;;;;3.90;3.60;;;;;;;15.09;100.00;95578.66;7398911;19;20378;-76
2023/07/02 04:46:48;;;;;;;5.30;3.80;;;;;;;15.26;100.00;95583.28;7397764;19;20416;-76
2023/07/02 04:49:15;;;;;;;5.00;3.83;;;;;;;15.16;100.00;95599.97;7399536;19;20396;-76
2023/07/02 04:51:42;;;;;;;3.73;3.43;;;;;;;15.17;100.00;95606.06;7398318;19;20381;-76
2023/07/02 04:54:09;;;;;;;4.10;3.80;;;;;;;14.98;100.00;95593.81;7399136;19;20376;-76
2023/07/02 04:56:36;;;;;;;4.10;3.70;;;;;;;15.19;100.00;95619.75;7396441;19;20810;-76
2023/07/02 04:59:03;;;;;;;4.53;3.80;;;;;;;15.11;100.00;95603.00;7398778;19;20746;-76
2023/07/02 05:01:30;;;;;;;5.33;3.33;;;;;;;15.14;100.00;95599.59;7397621;19;20920;-76
2023/07/02 05:03:57;;;;;;;4.40;3.47;;;;;;;15.25;100.00;95613.72;7398009;19;20384;-76
2023/07/02 05:06:24;;;;;;;4.60;3.23;;;;;;;15.30;100.00;95639.22;7396607;19;20818;-75
2023/07/02 05:08:52;;;;;;;3.80;2.97;;;;;;;15.32;100.00;95624.41;7399088;19;20400;-75
2023/07/02 05:11:19;;;;;;;4.53;4.13;;;;;;;15.14;100.00;95610.25;7398241;19;20479;-75
2023/07/02 05:13:46;;;;;;;3.40;3.10;;;;;;;15.16;100.00;95623.94;7399351;19;20372;-75
2023/07/02 05:16:14;;;;;;;3.23;3.00;;;;;;;15.21;100.00;95633.47;7394470;19;20436;-75
2023/07/02 05:18:41;;;;;;;5.23;3.60;;;;;;;15.29;100.00;95635.03;7400614;19;20353;-76
2023/07/02 05:21:08;;;;;;;4.73;3.83;;;;;;;15.23;100.00;95629.31;7399141;19;20409;-76
2023/07/02 05:23:35;;;;;;;3.53;3.23;;;;;;;15.18;100.00;95637.63;7398351;19;20445;-76
2023/07/02 05:26:02;;;;;;;3.00;2.80;;;;;;;15.16;100.00;95631.94;7397109;19;20940;-75
2023/07/02 05:28:29;;;;;;;3.07;2.77;;;;;;;15.19;100.00;95646.41;7398867;19;20415;-76
2023/07/02 05:30:56;;;;;;;4.10;2.90;;;;;;;15.22;100.00;95641.06;7397086;19;20404;-76
2023/07/02 05:33:23;;;;;;;4.80;3.30;;;;;;;15.44;100.00;95663.28;7398505;19;20451;-76
2023/07/02 05:35:50;;;;;;;4.00;3.57;;;;;;;15.24;100.00;95646.81;7396827;19;20401;-76
2023/07/02 05:38:18;;;;;;;4.60;3.20;;;;;;;15.28;100.00;95655.59;7395313;19;20736;-76
2023/07/02 05:40:46;;;;;;;3.47;3.17;;;;;;;15.01;100.00;95625.75;7396929;19;20387;-75
2023/07/02 05:43:13;;;;;;;3.27;2.97;;;;;;;15.10;100.00;95648.66;7395159;19;20387;-76
2023/07/02 05:45:40;;;;;;;3.57;3.27;;;;;;;15.02;100.00;95635.28;7396543;19;20380;-76
2023/07/02 05:48:07;;;;;;;3.40;3.10;;;;;;;15.06;100.00;95661.91;7396184;19;20372;-76
2023/07/02 05:50:34;;;;;;;5.63;3.50;;;;;;;15.18;100.00;95653.63;7397875;19;20337;-76
2023/07/02 05:53:01;;;;;;;5.40;3.50;;;;;;;15.26;100.00;95657.09;7395932;19;20361;-76
2023/07/02 05:55:28;;;;;;;3.73;3.33;;;;;;;15.58;100.00;95654.56;7396691;19;20817;-76
2023/07/02 05:57:57;;;;;;;3.40;2.83;;;;;;;15.87;100.00;95674.88;7395607;19;20374;-76
2023/07/02 06:00:24;;;;;;;3.50;3.20;;;;;;;15.61;100.00;95651.94;7396839;19;20904;-76
2023/07/02 06:02:51;;;;;;;5.63;3.63;;;;;;;15.72;100.00;95665.31;7394988;19;20761;-76
2023/07/02 06:05:18;;;;;;;2.90;2.70;;;;;;;15.84;100.00;95638.31;7397995;19;20352;-76
2023/07/02 06:07:45;;;;;;;3.57;3.27;;;;;;;16.29;100.00;95689.47;7393406;19;20429;-76
2023/07/02 06:10:12;;;;;;;4.30;3.00;;;;;;;15.71;100.00;95658.47;7396712;19;20392;-76
2023/07/02 06:12:39;;;;;;;10.60;5.30;;;;;;;15.74;100.00;95695.03;7394966;19;20394;-76
2023/07/02 06:15:07;;;;;;;4.17;3.77;;;;;;;15.73;100.00;95677.50;7396442;19;20436;-76
2023/07/02 06:17:34;;;;;;;5.80;4.30;;;;;;;15.92;100.00;95684.44;7392986;19;20465;-76
2023/07/02 06:20:06;;;;;;;6.07;4.50;;;;;;;16.01;100.00;95703.50;7396103;19;20390;-76
2023/07/02 06:22:33;;;;;;;7.47;5.77;;;;;;;16.01;100.00;95686.75;7394844;19;20409;-76
2023/07/02 06:25:00;;;;;;;5.43;4.93;;;;;;;16.07;100.00;95699.34;7395081;19;20746;-76
2023/07/02 06:27:31;;;;;;;11.00;6.37;;;;;;;15.99;100.00;95673.78;7393631;19;20952;-76
2023/07/02 06:29:58;;;;;;;8.73;6.17;;;;;;;16.24;100.00;95703.97;7397911;19;20361;-76
2023/07/02 06:32:25;;;;;;;11.90;6.10;;;;;;;16.22;100.00;95692.91;7394999;19;20361;-76
2023/07/02 06:34:52;;;;;;;8.87;6.40;;;;;;;16.39;100.00;95691.41;7396615;19;20381;-76
2023/07/02 06:37:19;;;;;;;18.17;8.10;;;;;;;16.68;100.00;95697.56;7391622;19;20426;-76
2023/07/02 06:39:46;;;;;;;8.03;6.27;;;;;;;16.79;100.00;95710.91;7396596;19;20368;-76
2023/07/02 06:42:13;;;;;;;8.73;6.90;;;;;;;16.68;100.00;95689.56;7394807;19;20418;-76
2023/07/02 06:44:40;;;;;;;9.27;6.53;;;;;;;16.67;100.00;95714.72;7396478;19;20350;-76
2023/07/02 06:47:07;;;;;;;8.40;6.50;;;;;;;16.63;100.00;95684.56;7393343;19;20404;-76
2023/07/02 06:49:34;;;;;;;11.70;7.30;;;;;;;17.02;100.00;95697.19;7397754;19;20342;-76
2023/07/02 06:52:01;;;;;;;16.50;8.50;;;;;;;16.80;100.00;95697.19;7395142;19;20380;-75
2023/07/02 06:54:28;;;;;;;14.10;8.20;;;;;;;17.27;100.00;95702.50;7393140;19;20361;-76
2023/07/02 06:56:55;;;;;;;7.83;7.00;;;;;;;17.17;100.00;95704.03;7394903;19;20420;-76
2023/07/02 06:59:23;;;;;;;10.63;6.57;;;;;;;17.28;100.00;95720.06;7392703;19;20768;-76
2023/07/02 07:01:50;;;;;;;10.17;7.10;;;;;;;17.38;100.00;95727.31;7394474;19;20376;-75
2023/07/02 07:04:17;;;;;;;10.20;7.13;;;;;;;17.17;100.00;95711.28;7392276;19;20368;-76
2023/07/02 07:06:44;;;;;;;11.90;5.90;;;;;;;16.71;100.00;95720.84;7393435;19;20975;-75
2023/07/02 07:09:11;;;;;;;8.60;5.83;;;;;;;16.19;100.00;95679.56;7394307;19;20381;-75
2023/07/02 07:11:38;;;;;;;10.20;6.70;;;;;;;16.16;100.00;95682.97;7394686;19;20369;-76
2023/07/02 07:14:05;;;;;;;13.27;7.20;;;;;;;16.26;100.00;95684.91;7393710;19;20404;-75
2023/07/02 07:16:32;;;;;;;11.70;5.97;;;;;;;16.00;100.00;95691.31;7393650;19;20497;-75
2023/07/02 07:18:59;;;;;;;9.60;7.10;;;;;;;16.19;100.00;95719.56;7392972;19;20415;-76
2023/07/02 07:21:26;;;;;;;6.07;4.97;;;;;;;16.08;100.00;95692.88;7394491;19;20442;-76
2023/07/02 07:23:53;;;;;;;9.40;6.17;;;;;;;16.06;100.00;95700.50;7391922;19;20362;-76
2023/07/02 07:26:20;;;;;;;9.67;6.30;;;;;;;16.10;100.00;95703.16;7393869;19;20426;-76
2023/07/02 07:28:47;;;;;;;7.90;5.83;;;;;;;16.23;100.00;95728.34;7392983;19;20360;-76
2023/07/02 07:31:15;;;;;;;6.00;5.13;;;;;;;16.24;100.00;95724.53;7394385;19;20407;-76
2023/07/02 07:33:42;;;;;;;8.27;5.90;;;;;;;16.29;100.00;95697.47;7392760;19;20369;-76
2023/07/02 07:36:09;;;;;;;9.53;6.30;;;;;;;16.76;100.00;95706.34;7391388;19;20423;-76
2023/07/02 07:38:36;;;;;;;10.00;6.97;;;;;;;17.21;100.00;95728.06;7392138;19;20912;-76
2023/07/02 07:41:03;;;;;;;15.50;6.73;;;;;;;16.81;100.00;95684.59;7393877;19;20346;-76
2023/07/02 07:43:29;;;;;;;10.30;6.60;;;;;;;17.13;100.00;95698.72;7392335;19;20410;-76
2023/07/02 07:45:56;;;;;;;7.23;5.83;;;;;;;17.76;100.00;95717.66;7393177;19;20436;-76
2023/07/02 07:48:23;;;;;;;9.30;6.27;;;;;;;17.71;100.00;95710.81;7397012;19;20373;-76
2023/07/02 07:50:50;;;;;;;8.60;5.80;;;;;;;17.33;100.00;95700.94;7401111;19;20680;-75
2023/07/02 07:53:17;;;;;;;8.50;6.50;;;;;;;17.71;100.00;95731.44;7400438;19;20374;-76
2023/07/02 07:55:44;;;;;;;7.63;6.77;;;;;;;17.88;100.00;95711.88;7401161;19;20422;-75
2023/07/02 07:58:11;;;;;;;9.00;6.20;;;;;;;17.31;100.00;95698.66;7399890;19;20410;-76
2023/07/02 08:00:38;;;;;;;8.40;5.63;;;;;;;17.19;100.00;95707.09;7401465;19;20394;-75
2023/07/02 08:03:06;;;;;;;7.33;6.63;;;;;;;17.50;100.00;95732.25;7399618;19;20421;-76
2023/07/02 08:05:33;;;;;;;7.90;6.47;;;;;;;17.90;100.00;95719.56;7398510;19;20401;-76
2023/07/02 08:08:00;;;;;;;8.00;5.80;;;;;;;17.72;100.00;95741.00;7399202;19;21017;-76
2023/07/02 08:10:27;;;;;;;6.97;6.27;;;;;;;17.32;100.00;95726.91;7400815;19;20389;-76
2023/07/02 08:12:54;;;;;;;8.33;6.30;;;;;;;17.77;100.00;95737.94;7399256;19;20983;-76
2023/07/02 08:15:22;;;;;;;7.37;6.27;;;;;;;17.58;100.00;95719.63;7399900;19;20950;-76
2023/07/02 08:17:48;;;;;;;7.60;5.40;;;;;;;18.20;100.00;95725.16;7400784;19;20388;-76
2023/07/02 08:20:17;;;;;;;7.60;5.70;;;;;;;17.91;100.00;95716.50;7400777;19;20389;-76
2023/07/02 08:22:44;;;;;;;12.10;6.50;;;;;;;18.77;99.26;95719.47;7399546;19;20390;-76
2023/07/02 08:25:10;;;;;;;9.20;6.20;;;;;;;18.46;94.99;95715.06;7398721;19;20953;-76
2023/07/02 08:27:37;;;;;;;9.47;7.17;;;;;;;18.45;94.07;95732.28;7398323;19;20406;-75
2023/07/02 08:30:05;;;;;;;8.53;5.97;;;;;;;18.31;91.37;95738.47;7400935;19;20836;-75
2023/07/02 08:32:33;;;;;;;9.07;7.13;;;;;;;18.55;90.07;95742.91;7400660;19;20341;-76
2023/07/02 08:35:00;;;;;;;8.27;5.50;;;;;;;18.63;89.29;95716.84;7400834;19;20386;-76
2023/07/02 08:37:27;;;;;;;10.13;6.67;;;;;;;18.58;89.26;95731.44;7397014;19;20509;-75
2023/07/02 08:39:54;;;;;;;6.13;5.53;;;;;;;18.67;89.92;95725.66;7397513;19;21268;-76
2023/07/02 08:42:21;;;;;;;8.90;6.10;;;;;;;19.08;90.08;95735.69;7399219;19;20350;-76
2023/07/02 08:44:54;;;;;;;9.20;5.17;;;;;;;19.01;87.67;95741.88;7397846;19;20387;-76
2023/07/02 08:47:21;;;;;;;9.40;6.50;;;;;;;18.76;84.81;95739.38;7396973;19;20415;-75
2023/07/02 08:49:49;;;;;;;8.27;5.93;;;;;;;18.38;84.84;95722.38;7397710;19;20351;-75
2023/07/02 08:52:16;;;;;;;8.77;6.73;;;;;;;18.94;87.02;95736.56;7399333;19;20377;-75
2023/07/02 08:54:43;;;;;;;8.13;5.13;;;;;;;19.45;82.09;95737.66;7398437;19;20402;-75
2023/07/02 08:57:10;;;;;;;6.30;5.33;;;;;;;18.99;81.42;95714.72;7397388;19;20430;-76
2023/07/02 08:59:37;;;;;;;8.70;5.80;;;;;;;18.57;83.07;95740.63;7395646;19;20398;-75
2023/07/02 09:02:04;;;;;;;5.93;5.37;;;;;;;18.31;83.96;95730.44;7399001;19;20434;-75
2023/07/02 09:04:31;;;;;;;6.67;4.60;;;;;;;18.40;84.48;95752.19;7396566;19;20390;-75
2023/07/02 09:07:06;;;;;;;8.20;5.40;;;;;;;18.18;85.52;95761.47;7397420;19;20478;-76
2023/07/02 09:09:45;;;;;;;7.57;5.60;;;;;;;17.93;86.63;95756.22;7397930;19;20374;-75
2023/07/02 09:12:29;;;;;;;7.50;6.07;;;;;;;17.75;85.75;95739.44;7399531;19;20374;-75
2023/07/02 09:14:58;;;;;;;6.53;4.87;;;;;;;18.05;86.22;95766.50;7399992;19;20462;-76
2023/07/02 09:17:37;;;;;;;5.83;5.20;;;;;;;18.33;84.96;95751.47;7395069;19;20434;-76
2023/07/02 09:20:07;;;;;;;5.97;4.60;;;;;;;18.42;85.76;95739.16;7399108;19;20414;-76
2023/07/02 09:22:37;;;;;;;7.17;5.30;;;;;;;18.46;87.95;95758.66;7397758;19;20366;-75
2023/07/02 09:25:04;;;;;;;6.20;4.90;;;;;;;18.42;88.42;95773.19;7397726;19;20415;-76
2023/07/02 09:27:35;;;;;;;6.33;5.43;;;;;;;18.45;86.93;95775.13;7394911;19;20398;-76
2023/07/02 09:30:07;;;;;;;5.67;5.03;;;;;;;18.33;87.44;95783.59;7398562;19;20677;-75
2023/07/02 09:32:35;;;;;;;7.57;5.70;;;;;;;18.08;89.41;95749.66;7396997;19;20386;-76
2023/07/02 09:35:02;;;;;;;5.87;5.20;;;;;;;18.19;88.95;95750.38;7398587;19;20374;-75
2023/07/02 09:37:29;;;;;;;4.80;4.40;;;;;;;18.37;87.33;95776.28;7395497;19;20439;-75
2023/07/02 09:39:56;;;;;;;5.30;4.80;;;;;;;18.75;86.18;95747.81;7396452;19;20369;-73
2023/07/02 09:42:25;;;;;;;6.67;4.90;;;;;;;19.43;84.81;95772.16;7396946;19;20394;-76
2023/07/02 09:45:01;;;;;;;6.17;5.10;;;;;;;19.39;85.21;95780.22;7395066;19;20378;-76
2023/07/02 09:47:32;;;;;;;6.17;4.80;;;;;;;18.69;86.60;95784.16;7395678;19;20426;-75
2023/07/02 09:50:05;;;;;;;5.67;5.17;;;;;;;18.85;85.29;95752.34;7395473;19;20856;-76
2023/07/02 09:52:34;;;;;;;7.10;4.97;;;;;;;18.52;84.78;95759.00;7399137;19;20383;-78
2023/07/02 09:55:01;;;;;;;8.43;4.80;;;;;;;18.72;85.76;95770.03;7397517;19;20486;-76
2023/07/02 09:57:31;;;;;;;5.20;4.43;;;;;;;18.53;88.17;95781.94;7396673;19;20418;-76
2023/07/02 10:00:04;;;;;;;6.03;4.83;;;;;;;18.39;89.50;95765.94;7396197;19;20439;-76
2023/07/02 10:02:31;;;;;;;5.73;5.13;;;;;;;18.40;88.48;95776.28;7398112;19;20358;-76
2023/07/02 10:04:58;;;;;;;5.23;3.77;;;;;;;18.37;88.29;95784.31;7396395;19;20664;-76
2023/07/02 10:07:30;;;;;;;5.60;5.07;;;;;;;18.45;89.97;95759.06;7396736;19;20519;-76
2023/07/02 10:09:58;;;;;;;4.27;3.87;;;;;;;18.57;88.60;95783.47;7397254;19;20707;-76
2023/07/02 10:12:26;;;;;;;6.23;4.97;;;;;;;18.34;90.77;95761.03;7395192;19;20708;-76
2023/07/02 10:14:55;;;;;;;6.13;4.50;;;;;;;18.33;91.32;95765.63;7396638;19;20422;-76
2023/07/02 10:17:33;;;;;;;6.67;4.10;;;;;;;18.22;88.80;95780.94;7393350;19;20445;-76
2023/07/02 10:20:08;;;;;;;4.63;4.17;;;;;;;18.79;86.60;95786.78;7397093;19;20355;-76
2023/07/02 10:22:52;;;;;;;4.57;3.60;;;;;;;19.08;85.70;95773.19;7396746;19;20387;-75
2023/07/02 10:25:28;;;;;;;3.70;3.40;;;;;;;19.28;84.92;95792.97;7395204;19;20402;-75
2023/07/02 10:27:55;;;;;;;4.90;4.50;;;;;;;18.94;86.61;95774.06;7398187;19;20416;-75
2023/07/02 10:30:37;;;;;;;6.53;4.43;;;;;;;19.08;86.18;95800.75;7395688;19;20940;-75
2023/07/02 10:33:09;;;;;;;4.57;4.10;;;;;;;18.75;88.07;95786.06;7397639;19;20394;-76
2023/07/02 10:35:36;;;;;;;4.50;3.90;;;;;;;19.51;86.57;95787.03;7396094;19;20390;-76
2023/07/02 10:38:06;;;;;;;7.03;4.80;;;;;;;19.58;84.52;95810.34;7397490;19;20752;-76
2023/07/02 10:40:34;;;;;;;5.90;3.83;;;;;;;19.38;85.27;95802.84;7397819;19;20384;-76
2023/07/02 10:43:01;;;;;;;4.53;3.37;;;;;;;19.07;85.71;95775.13;7398295;19;20428;-76
2023/07/02 10:45:33;;;;;;;8.43;4.43;;;;;;;19.33;85.15;95802.47;7395042;19;20450;-77
2023/07/02 10:48:08;;;;;;;6.20;4.10;;;;;;;18.69;87.41;95803.69;7394279;19;20431;-76
2023/07/02 10:50:35;;;;;;;5.67;4.50;;;;;;;19.18;87.57;95796.47;7396023;19;20367;-76
2023/07/02 10:53:03;;;;;;;6.50;4.27;;;;;;;20.22;84.33;95807.78;7394792;19;20348;-76
2023/07/02 10:55:31;;;;;;;4.80;3.50;;;;;;;20.05;81.44;95798.00;7397097;19;20764;-76
2023/07/02 10:58:09;;;;;;;6.23;4.10;;;;;;;19.94;83.21;95805.41;7395573;19;20376;-75
2023/07/02 11:00:47;;;;;;;6.63;4.07;;;;;;;19.48;82.90;95785.88;7397301;19;20480;-76
2023/07/02 11:03:22;;;;;;;4.33;3.80;;;;;;;19.41;83.50;95812.75;7394577;19;20902;-76
2023/07/02 11:05:50;;;;;;;5.80;4.03;;;;;;;19.19;83.68;95792.63;7395146;19;20993;-76
2023/07/02 11:08:23;;;;;;;6.07;4.17;;;;;;;18.89;82.56;95785.22;7395362;19;20419;-76
2023/07/02 11:10:50;;;;;;;5.50;4.20;;;;;;;19.16;83.58;95788.06;7396995;19;20375;-76
2023/07/02 11:13:19;;;;;;;4.43;3.37;;;;;;;19.20;83.68;95810.25;7396336;19;20337;-76
2023/07/02 11:15:47;;;;;;;5.13;4.73;;;;;;;19.03;83.89;95761.00;7393733;19;20420;-76
2023/07/02 11:18:17;;;;;;;5.10;4.20;;;;;;;19.29;82.17;95791.81;7395179;19;20390;-76
2023/07/02 11:20:46;;;;;;;5.77;4.67;;;;;;;19.63;80.93;95802.66;7393462;19;20365;-76
2023/07/02 11:23:24;;;;;;;5.67;3.80;;;;;;;19.76;84.02;95813.63;7398775;19;20423;-76
2023/07/02 11:26:02;;;;;;;4.93;4.23;;;;;;;19.59;82.47;95809.19;7402717;19;20438;-76
2023/07/02 11:28:31;;;;;;;4.50;4.03;;;;;;;19.67;82.58;95811.41;7403986;19;20365;-75
2023/07/02 11:30:59;;;;;;;8.33;5.10;;;;;;;19.59;84.15;95803.81;7401640;19;20401;-76